createdAt,value
2019-04-23T00:01:50.968Z,13.00
2019-04-23T00:04:23.687Z,12.90
2019-04-23T00:07:07.313Z,12.90
2019-04-23T00:09:32.987Z,12.90
2019-04-23T00:12:03.268Z,12.80
2019-04-23T00:14:39.534Z,12.80
2019-04-23T00:17:10.364Z,12.80
2019-04-23T00:19:45.148Z,12.70
2019-04-23T00:22:20.534Z,12.70
2019-04-23T00:25:30.877Z,12.70
2019-04-23T00:27:33.180Z,12.60
2019-04-23T00:29:56.207Z,12.60
2019-04-23T00:34:59.602Z,12.50
2019-04-23T00:40:03.239Z,12.40
2019-04-23T00:42:41.522Z,12.40
2019-04-23T00:45:11.639Z,12.40
2019-04-23T00:47:45.030Z,12.30
2019-04-23T00:50:42.875Z,12.30
2019-04-23T00:52:50.371Z,12.20
2019-04-23T00:55:26.261Z,12.20
2019-04-23T00:58:00.847Z,12.10
2019-04-23T01:00:39.018Z,12.10
2019-04-23T01:05:37.597Z,12.10
2019-04-23T01:08:12.812Z,12.00
2019-04-23T01:11:06.235Z,12.00
2019-04-23T01:13:48.213Z,12.00
2019-04-23T01:16:11.504Z,11.90
2019-04-23T01:18:54.459Z,11.90
2019-04-23T01:21:24.476Z,11.90
2019-04-23T01:24:06.392Z,11.90
2019-04-23T01:27:32.241Z,11.80
2019-04-23T01:29:51.816Z,11.80
2019-04-23T01:32:25.712Z,11.70
2019-04-23T01:35:06.585Z,11.70
2019-04-23T01:37:30.444Z,11.70
2019-04-23T01:40:04.257Z,11.70
2019-04-23T01:42:40.460Z,11.70
2019-04-23T01:45:15.305Z,11.60
2019-04-23T01:50:14.106Z,11.60
2019-04-23T01:52:53.914Z,11.60
2019-04-23T01:55:24.415Z,11.50
2019-04-23T01:57:56.356Z,11.50
2019-04-23T02:00:27.319Z,11.50
2019-04-23T02:03:09.322Z,11.50
2019-04-23T02:05:30.540Z,11.40
2019-04-23T02:08:06.454Z,11.40
2019-04-23T02:13:11.123Z,11.30
2019-04-23T02:15:40.900Z,11.20
2019-04-23T02:20:47.809Z,11.30
2019-04-23T02:23:32.663Z,11.20
2019-04-23T02:28:40.673Z,11.10
2019-04-23T02:31:23.504Z,11.10
2019-04-23T02:34:01.246Z,11.10
2019-04-23T02:38:54.492Z,11.00
2019-04-23T02:41:27.705Z,11.00
2019-04-23T02:44:04.952Z,11.00
2019-04-23T02:46:12.877Z,10.90
2019-04-23T02:49:05.013Z,10.90
2019-04-23T02:51:39.935Z,10.90
2019-04-23T02:54:16.365Z,10.90
2019-04-23T03:02:07.721Z,10.90
2019-04-23T03:04:32.818Z,10.90
2019-04-23T03:06:56.417Z,10.80
2019-04-23T03:09:29.150Z,10.80
2019-04-23T03:12:00.743Z,10.80
2019-04-23T03:14:26.664Z,10.80
2019-04-23T03:19:45.524Z,10.70
2019-04-23T03:22:15.238Z,10.70
2019-04-23T03:27:53.605Z,10.70
2019-04-23T03:30:49.429Z,10.60
2019-04-23T03:38:14.049Z,10.60
2019-04-23T03:40:39.671Z,10.60
2019-04-23T03:46:12.414Z,10.50
2019-04-23T03:50:47.224Z,10.50
2019-04-23T03:53:32.724Z,10.40
2019-04-23T03:56:05.847Z,10.40
2019-04-23T03:58:34.256Z,10.30
2019-04-23T04:04:12.494Z,10.30
2019-04-23T04:06:14.189Z,10.30
2019-04-23T04:08:37.103Z,10.30
2019-04-23T04:11:14.596Z,10.30
2019-04-23T04:21:31.951Z,10.20
2019-04-23T04:24:05.057Z,10.30
2019-04-23T04:26:32.637Z,10.20
2019-04-23T04:31:42.259Z,10.20
2019-04-23T04:36:44.647Z,10.20
2019-04-23T04:39:09.346Z,10.30
2019-04-23T04:41:58.726Z,10.30
2019-04-23T04:46:49.887Z,10.30
2019-04-23T04:49:20.050Z,10.30
2019-04-23T04:52:13.481Z,10.30
2019-04-23T04:59:53.832Z,10.40
2019-04-23T05:02:14.499Z,10.40
2019-04-23T05:04:55.887Z,10.50
2019-04-23T05:07:08.690Z,10.50
2019-04-23T05:09:48.561Z,10.50
2019-04-23T05:12:19.070Z,10.50
2019-04-23T05:14:54.568Z,10.50
2019-04-23T05:17:42.180Z,10.60
2019-04-23T05:25:05.591Z,10.70
2019-04-23T05:28:00.896Z,10.70
2019-04-23T05:32:54.391Z,10.70
2019-04-23T05:35:33.320Z,10.80
2019-04-23T05:40:45.031Z,10.90
2019-04-23T05:42:58.839Z,10.90
2019-04-23T05:50:53.915Z,11.10
2019-04-23T05:53:11.542Z,11.10
2019-04-23T05:55:44.575Z,11.20
2019-04-23T06:00:54.562Z,11.30
2019-04-23T06:03:22.891Z,11.30
2019-04-23T06:06:11.274Z,11.40
2019-04-23T06:08:33.586Z,11.40
2019-04-23T06:11:03.899Z,11.50
2019-04-23T06:13:36.569Z,11.50
2019-04-23T06:16:04.959Z,11.60
2019-04-23T06:18:44.848Z,11.70
2019-04-23T06:21:10.181Z,11.80
2019-04-23T06:26:29.956Z,11.90
2019-04-23T06:28:59.495Z,11.90
2019-04-23T06:31:31.254Z,12.00
2019-04-23T06:34:11.136Z,12.10
2019-04-23T06:36:34.364Z,12.20
2019-04-23T06:39:13.342Z,12.20
2019-04-23T06:41:37.570Z,12.30
2019-04-23T06:44:19.282Z,12.40
2019-04-23T06:49:26.442Z,12.50
2019-04-23T06:52:09.999Z,12.60
2019-04-23T06:54:35.819Z,12.60
2019-04-23T06:57:10.236Z,12.70
2019-04-23T06:59:35.806Z,12.80
2019-04-23T07:04:51.468Z,12.90
2019-04-23T07:07:37.963Z,13.00
2019-04-23T07:09:47.108Z,13.10
2019-04-23T07:12:25.568Z,13.20
2019-04-23T07:17:38.055Z,13.30
2019-04-23T07:20:00.254Z,13.40
2019-04-23T07:22:27.889Z,13.40
2019-04-23T07:25:17.616Z,13.50
2019-04-23T07:27:29.667Z,13.60
2019-04-23T07:30:16.637Z,13.70
2019-04-23T07:32:44.745Z,13.80
2019-04-23T07:35:13.713Z,13.90
2019-04-23T07:37:56.799Z,14.00
2019-04-23T07:43:37.483Z,14.00
2019-04-23T07:46:25.927Z,14.00
2019-04-23T07:48:47.994Z,14.10
2019-04-23T07:51:24.084Z,14.20
2019-04-23T07:54:01.253Z,14.30
2019-04-23T07:56:33.757Z,14.40
2019-04-23T07:59:08.848Z,14.40
2019-04-23T08:01:34.883Z,14.50
2019-04-23T08:04:05.014Z,14.50
2019-04-23T08:06:43.475Z,14.60
2019-04-23T08:09:09.238Z,14.70
2019-04-23T08:11:45.870Z,14.70
2019-04-23T08:14:34.302Z,14.80
2019-04-23T08:16:42.422Z,14.80
2019-04-23T08:19:25.320Z,15.00
2019-04-23T08:22:10.521Z,15.10
2019-04-23T08:27:36.785Z,15.30
2019-04-23T08:30:11.866Z,15.40
2019-04-23T08:32:46.565Z,15.40
2019-04-23T08:35:16.402Z,15.50
2019-04-23T08:38:04.590Z,15.50
2019-04-23T08:43:03.522Z,15.60
2019-04-23T08:45:50.027Z,15.70
2019-04-23T08:48:27.517Z,15.70
2019-04-23T08:50:55.936Z,15.90
2019-04-23T08:56:07.720Z,15.90
2019-04-23T08:58:41.952Z,16.10
2019-04-23T09:01:27.794Z,16.10
2019-04-23T09:03:39.647Z,16.20
2019-04-23T09:08:45.824Z,16.50
2019-04-23T09:13:57.393Z,16.70
2019-04-23T09:16:29.193Z,16.90
2019-04-23T09:19:04.070Z,17.10
2019-04-23T09:21:32.632Z,17.20
2019-04-23T09:24:03.943Z,17.30
2019-04-23T09:26:44.131Z,17.30
2019-04-23T09:29:12.100Z,17.50
2019-04-23T09:34:58.914Z,17.80
2019-04-23T09:40:54.454Z,18.00
2019-04-23T09:43:48.557Z,18.10
2019-04-23T09:46:24.305Z,18.10
2019-04-23T09:49:18.653Z,18.20
2019-04-23T09:51:34.249Z,18.40
2019-04-23T09:54:05.911Z,18.40
2019-04-23T09:56:37.819Z,18.40
2019-04-23T09:59:17.550Z,18.40
2019-04-23T10:01:32.882Z,18.40
2019-04-23T10:03:56.951Z,18.40
2019-04-23T10:06:23.311Z,18.40
2019-04-23T10:08:56.236Z,18.60
2019-04-23T10:11:26.086Z,18.80
2019-04-23T10:13:58.627Z,18.90
2019-04-23T10:16:33.458Z,18.90
2019-04-23T10:19:03.729Z,19.10
2019-04-23T10:21:35.367Z,19.30
2019-04-23T10:24:07.503Z,19.40
2019-04-23T10:26:39.816Z,19.50
2019-04-23T10:29:18.185Z,19.60
2019-04-23T10:31:49.499Z,19.70
2019-04-23T10:34:21.207Z,19.90
2019-04-23T10:36:53.487Z,20.10
2019-04-23T10:39:30.404Z,20.00
2019-04-23T10:41:59.627Z,20.10
2019-04-23T10:44:38.635Z,20.10
2019-04-23T10:48:03.363Z,20.30
2019-04-23T10:53:32.875Z,20.90
2019-04-23T10:56:14.529Z,21.00
2019-04-23T10:58:31.835Z,21.10
2019-04-23T11:06:19.693Z,21.80
2019-04-23T11:08:36.856Z,22.00
2019-04-23T11:11:18.727Z,22.00
2019-04-23T11:13:44.981Z,21.80
2019-04-23T11:18:56.893Z,22.00
2019-04-23T11:21:28.567Z,22.30
2019-04-23T11:24:02.511Z,22.50
2019-04-23T11:29:04.054Z,23.00
2019-04-23T11:34:19.302Z,23.60
2019-04-23T11:39:21.687Z,23.70
2019-04-23T11:41:59.973Z,23.90
2019-04-23T11:47:08.619Z,24.00
2019-04-23T11:52:03.201Z,23.80
2019-04-23T11:54:39.488Z,23.90
2019-04-23T12:02:46.709Z,24.20
2019-04-23T12:08:36.496Z,24.10
2019-04-23T12:11:39.795Z,23.90
2019-04-23T12:24:58.212Z,24.20
2019-04-23T12:29:44.441Z,24.50
2019-04-23T12:32:43.067Z,24.80
2019-04-23T12:37:42.816Z,24.90
2019-04-23T12:45:29.164Z,24.50
2019-04-23T12:47:56.658Z,24.60
2019-04-23T12:58:03.479Z,23.20
2019-04-23T13:00:48.227Z,23.10
2019-04-23T13:03:13.500Z,23.10
2019-04-23T13:05:57.511Z,23.00
2019-04-23T13:08:28.578Z,23.00
2019-04-23T13:11:01.279Z,22.90
2019-04-23T13:13:32.571Z,22.80
2019-04-23T13:15:53.196Z,22.80
2019-04-23T13:18:33.906Z,22.60
2019-04-23T13:20:54.027Z,22.40
2019-04-23T13:23:35.913Z,22.20
2019-04-23T13:26:08.935Z,22.20
2019-04-23T13:28:50.947Z,22.20
2019-04-23T13:31:24.378Z,22.20
2019-04-23T13:34:16.301Z,22.30
2019-04-23T13:36:41.790Z,22.40
2019-04-23T13:39:09.701Z,22.50
2019-04-23T13:41:47.878Z,22.80
2019-04-23T13:44:12.631Z,23.00
2019-04-23T13:46:49.482Z,23.10
2019-04-23T13:49:18.411Z,23.20
2019-04-23T13:52:02.897Z,23.40
2019-04-23T13:54:50.250Z,23.40
2019-04-23T13:59:41.707Z,23.50
2019-04-23T14:02:09.175Z,23.60
2019-04-23T14:04:50.842Z,23.60
2019-04-23T14:07:26.105Z,23.40
2019-04-23T14:10:08.400Z,23.40
2019-04-23T14:12:35.200Z,23.40
2019-04-23T14:18:08.357Z,23.60
2019-04-23T14:20:12.183Z,23.70
2019-04-23T14:25:10.105Z,24.20
2019-04-23T14:27:51.317Z,24.20
2019-04-23T14:33:12.078Z,24.20
2019-04-23T14:35:25.791Z,24.10
2019-04-23T14:38:09.767Z,24.20
2019-04-23T14:48:14.359Z,23.50
2019-04-23T14:50:50.556Z,23.40
2019-04-23T14:53:24.406Z,23.20
2019-04-23T14:56:00.382Z,23.10
2019-04-23T15:01:24.694Z,23.00
2019-04-23T15:03:47.385Z,22.90
2019-04-23T15:06:27.783Z,22.80
2019-04-23T15:08:58.893Z,22.80
2019-04-23T15:11:44.248Z,22.80
2019-04-23T15:19:45.048Z,22.90
2019-04-23T15:22:07.914Z,22.90
2019-04-23T15:24:40.881Z,22.80
2019-04-23T15:29:31.794Z,23.00
2019-04-23T15:32:39.273Z,23.00
2019-04-23T15:34:48.987Z,22.90
2019-04-23T15:42:34.819Z,23.00
2019-04-23T15:45:00.973Z,22.90
2019-04-23T15:47:32.891Z,22.80
2019-04-23T15:52:51.527Z,22.70
2019-04-23T15:55:14.705Z,22.70
2019-04-23T15:58:00.903Z,22.60
2019-04-23T16:00:22.438Z,22.70
2019-04-23T16:02:25.211Z,22.60
2019-04-23T16:04:56.211Z,22.50
2019-04-23T16:07:41.147Z,22.40
2019-04-23T16:13:02.899Z,22.10
2019-04-23T16:15:35.857Z,22.00
2019-04-23T16:18:35.495Z,22.00
2019-04-23T16:21:12.552Z,21.90
2019-04-23T16:23:35.899Z,21.80
2019-04-23T16:26:11.496Z,21.70
2019-04-23T16:29:00.362Z,21.60
2019-04-23T16:31:23.531Z,21.50
2019-04-23T16:36:25.203Z,21.50
2019-04-23T16:38:58.596Z,21.50
2019-04-23T16:41:34.914Z,21.60
2019-04-23T16:44:18.391Z,21.60
2019-04-23T16:46:44.114Z,21.60
2019-04-23T16:49:23.124Z,21.50
2019-04-23T16:54:26.644Z,21.50
2019-04-23T16:57:12.092Z,21.50
2019-04-23T16:59:24.746Z,21.50
2019-04-23T17:02:06.607Z,21.60
2019-04-23T17:04:32.698Z,21.70
2019-04-23T17:07:05.369Z,21.90
2019-04-23T17:09:42.750Z,21.90
2019-04-23T17:12:08.994Z,22.00
2019-04-23T17:14:41.587Z,22.10
2019-04-23T17:17:04.824Z,22.30
2019-04-23T17:19:47.263Z,22.40
2019-04-23T17:22:17.627Z,22.40
2019-04-23T17:24:59.413Z,22.30
2019-04-23T17:29:58.064Z,21.90
2019-04-23T17:32:27.974Z,21.60
2019-04-23T17:35:17.803Z,21.40
2019-04-23T17:40:19.830Z,21.10
2019-04-23T17:43:14.739Z,21.00
2019-04-23T17:45:33.818Z,20.90
2019-04-23T17:48:21.408Z,20.80
2019-04-23T17:51:04.112Z,20.60
2019-04-23T17:53:33.365Z,20.50
2019-04-23T17:56:20.084Z,20.40
2019-04-23T17:58:37.400Z,20.30
2019-04-23T18:03:55.578Z,20.10
2019-04-23T18:11:25.469Z,19.90
2019-04-23T18:16:35.468Z,19.80
2019-04-23T18:19:10.371Z,19.80
2019-04-23T18:22:07.333Z,19.70
2019-04-23T18:24:58.633Z,19.60
2019-04-23T18:27:23.336Z,19.50
2019-04-23T18:30:17.827Z,19.50
2019-04-23T18:33:56.689Z,19.50
2019-04-23T18:35:51.406Z,19.30
2019-04-23T18:38:31.945Z,19.20
2019-04-23T18:41:05.364Z,19.20
2019-04-23T18:43:34.149Z,19.10
2019-04-23T18:46:16.781Z,19.00
2019-04-23T18:51:33.943Z,18.90
2019-04-23T18:56:20.846Z,18.80
2019-04-23T19:01:33.024Z,18.80
2019-04-23T19:04:29.127Z,18.70
2019-04-23T19:06:44.135Z,18.70
2019-04-23T19:10:19.039Z,18.60
2019-04-23T19:12:41.164Z,18.60
2019-04-23T19:20:35.325Z,18.40
2019-04-23T19:22:58.579Z,18.40
2019-04-23T19:28:08.934Z,18.30
2019-04-23T19:33:14.206Z,18.20
2019-04-23T19:38:20.392Z,18.00
2019-04-23T19:40:51.747Z,18.00
2019-04-23T19:43:25.137Z,17.90
2019-04-23T19:46:03.929Z,17.80
2019-04-23T19:48:36.269Z,17.80
2019-04-23T19:51:03.093Z,17.70
2019-04-23T20:03:49.687Z,17.50
2019-04-23T20:06:32.400Z,17.50
2019-04-23T20:11:29.710Z,17.40
2019-04-23T20:16:40.056Z,17.20
2019-04-23T20:19:10.095Z,17.10
2019-04-23T20:21:47.402Z,17.10
2019-04-23T20:24:20.823Z,17.00
2019-04-23T20:26:41.324Z,17.00
2019-04-23T20:29:54.613Z,17.00
2019-04-23T20:38:08.594Z,16.80
2019-04-23T20:40:15.031Z,16.80
2019-04-23T20:42:48.194Z,16.70
2019-04-23T20:45:43.788Z,16.70
2019-04-23T20:47:52.812Z,16.70
2019-04-23T20:50:16.404Z,16.60
2019-04-23T20:52:54.769Z,16.60
2019-04-23T20:55:49.638Z,16.60
2019-04-23T20:58:34.414Z,16.50
2019-04-23T21:01:26.952Z,16.50
2019-04-23T21:03:56.952Z,16.50
2019-04-23T21:06:44.221Z,16.40
2019-04-23T21:09:17.433Z,16.40
2019-04-23T21:16:41.142Z,16.20
2019-04-23T21:19:11.831Z,16.20
2019-04-23T21:22:06.026Z,16.20
2019-04-23T21:24:43.035Z,16.10
2019-04-23T21:27:21.957Z,16.10
2019-04-23T21:30:00.653Z,16.10
2019-04-23T21:32:24.913Z,16.00
2019-04-23T21:35:04.624Z,16.00
2019-04-23T21:37:52.708Z,16.00
2019-04-23T21:43:16.297Z,15.90
2019-04-23T21:48:33.746Z,15.80
2019-04-23T21:51:04.230Z,15.80
2019-04-23T21:53:33.189Z,15.80
2019-04-23T21:56:05.484Z,15.70
2019-04-23T21:58:46.484Z,15.70
2019-04-23T22:01:18.711Z,15.60
2019-04-23T22:06:31.582Z,15.60
2019-04-23T22:09:00.920Z,15.50
2019-04-23T22:16:42.852Z,15.50
2019-04-23T22:24:21.594Z,15.50
2019-04-23T22:26:51.388Z,15.50
2019-04-23T22:31:47.145Z,15.50
2019-04-23T22:34:21.835Z,15.50
2019-04-23T22:39:27.653Z,15.50
2019-04-23T22:44:39.180Z,15.40
2019-04-23T22:47:02.601Z,15.40
2019-04-23T22:49:45.374Z,15.40
2019-04-23T22:52:16.407Z,15.40
2019-04-23T22:54:57.133Z,15.40
2019-04-23T22:57:09.010Z,15.40
2019-04-23T23:00:02.467Z,15.40
2019-04-23T23:02:54.067Z,15.40
2019-04-23T23:07:56.489Z,15.30
2019-04-23T23:10:36.693Z,15.30
2019-04-23T23:13:05.837Z,15.30
2019-04-23T23:15:30.752Z,15.30
2019-04-23T23:18:13.260Z,15.30
2019-04-23T23:20:36.314Z,15.30
2019-04-23T23:23:13.055Z,15.20
2019-04-23T23:25:46.082Z,15.20
2019-04-23T23:28:20.614Z,15.10
2019-04-23T23:30:55.305Z,15.10
2019-04-23T23:33:17.203Z,15.10
2019-04-23T23:35:53.739Z,15.10
2019-04-23T23:38:45.588Z,15.10
2019-04-23T23:41:04.191Z,15.10
2019-04-23T23:48:35.973Z,15.00
2019-04-23T23:53:55.053Z,15.00
